createdAt,value
2023-08-09T00:01:57.033Z,61.70
2023-08-09T00:04:24.229Z,61.99
2023-08-09T00:06:51.213Z,61.95
2023-08-09T00:09:18.560Z,62.29
2023-08-09T00:11:45.730Z,62.24
2023-08-09T00:14:13.075Z,62.25
2023-08-09T00:16:40.314Z,62.42
2023-08-09T00:19:08.013Z,62.37
2023-08-09T00:21:35.176Z,62.00
2023-08-09T00:24:02.269Z,62.01
2023-08-09T00:26:29.405Z,62.31
2023-08-09T00:28:56.715Z,62.20
2023-08-09T00:31:24.584Z,62.34
2023-08-09T00:33:52.418Z,62.42
2023-08-09T00:36:19.607Z,62.18
2023-08-09T00:38:46.827Z,62.19
2023-08-09T00:41:13.977Z,62.16
2023-08-09T00:43:41.165Z,62.86
2023-08-09T00:46:09.252Z,62.79
2023-08-09T00:48:36.567Z,63.05
2023-08-09T00:51:04.457Z,62.96
2023-08-09T00:53:33.110Z,62.90
2023-08-09T00:56:00.759Z,63.00
2023-08-09T00:58:28.103Z,62.86
2023-08-09T01:00:55.287Z,63.18
2023-08-09T01:03:24.386Z,63.00
2023-08-09T01:06:23.675Z,62.90
2023-08-09T01:09:02.320Z,63.04
2023-08-09T01:11:37.372Z,63.25
2023-08-09T01:14:08.383Z,63.12
2023-08-09T01:16:38.052Z,63.27
2023-08-09T01:19:11.744Z,63.10
2023-08-09T01:21:44.413Z,63.07
2023-08-09T01:24:13.751Z,63.31
2023-08-09T01:26:41.372Z,62.83
2023-08-09T01:29:08.603Z,63.13
2023-08-09T01:31:35.727Z,62.73
2023-08-09T01:34:04.229Z,62.90
2023-08-09T01:36:35.499Z,62.82
2023-08-09T01:39:08.602Z,62.81
2023-08-09T01:41:36.831Z,62.89
2023-08-09T01:44:05.643Z,63.29
2023-08-09T01:46:33.309Z,63.31
2023-08-09T01:49:11.129Z,63.27
2023-08-09T01:51:39.932Z,63.27
2023-08-09T01:54:08.736Z,63.18
2023-08-09T01:56:37.096Z,63.53
2023-08-09T01:59:06.960Z,63.46
2023-08-09T02:01:34.220Z,63.27
2023-08-09T02:04:01.745Z,63.41
2023-08-09T02:06:29.088Z,63.30
2023-08-09T02:08:56.255Z,63.22
2023-08-09T02:11:23.396Z,63.68
2023-08-09T02:13:53.222Z,63.13
2023-08-09T02:16:21.515Z,63.10
2023-08-09T02:18:49.892Z,62.99
2023-08-09T02:21:17.037Z,63.15
2023-08-09T02:23:44.158Z,63.34
2023-08-09T02:26:11.230Z,63.19
2023-08-09T02:28:38.282Z,63.10
2023-08-09T02:31:05.432Z,63.41
2023-08-09T02:33:32.958Z,63.39
2023-08-09T02:36:03.560Z,63.24
2023-08-09T02:38:33.139Z,63.47
2023-08-09T02:41:01.595Z,63.55
2023-08-09T02:43:30.535Z,63.50
2023-08-09T02:45:58.154Z,63.47
2023-08-09T02:48:26.087Z,63.27
2023-08-09T02:50:53.376Z,63.28
2023-08-09T02:53:20.706Z,62.95
2023-08-09T02:55:47.825Z,63.47
2023-08-09T02:58:14.939Z,63.12
2023-08-09T03:00:42.022Z,63.11
2023-08-09T03:03:10.416Z,62.58
2023-08-09T03:05:39.575Z,62.83
2023-08-09T03:08:06.655Z,62.95
2023-08-09T03:10:34.067Z,62.84
2023-08-09T03:13:01.236Z,62.91
2023-08-09T03:15:29.905Z,63.12
2023-08-09T03:17:57.183Z,62.95
2023-08-09T03:20:24.297Z,62.90
2023-08-09T03:22:51.400Z,62.71
2023-08-09T03:25:19.152Z,63.17
2023-08-09T03:27:48.838Z,62.82
2023-08-09T03:30:18.957Z,63.04
2023-08-09T03:32:46.139Z,63.27
2023-08-09T03:35:13.770Z,63.32
2023-08-09T03:37:41.183Z,63.02
2023-08-09T03:40:10.165Z,63.08
2023-08-09T03:42:37.371Z,63.16
2023-08-09T03:45:04.924Z,63.11
2023-08-09T03:47:32.987Z,63.28
2023-08-09T03:50:00.430Z,63.02
2023-08-09T03:52:31.078Z,63.14
2023-08-09T03:54:58.429Z,62.90
2023-08-09T03:57:25.549Z,62.96
2023-08-09T03:59:52.998Z,63.02
2023-08-09T04:02:20.071Z,62.62
2023-08-09T04:04:48.598Z,62.62
2023-08-09T04:07:16.100Z,62.90
2023-08-09T04:09:43.160Z,62.76
2023-08-09T04:12:10.227Z,62.96
2023-08-09T04:14:37.302Z,62.76
2023-08-09T04:17:07.546Z,62.57
2023-08-09T04:19:34.730Z,62.83
2023-08-09T04:22:01.970Z,62.34
2023-08-09T04:24:29.184Z,62.42
2023-08-09T04:26:56.261Z,62.71
2023-08-09T04:29:23.351Z,62.52
2023-08-09T04:31:50.478Z,62.65
2023-08-09T04:34:17.577Z,62.37
2023-08-09T04:36:44.727Z,62.29
2023-08-09T04:39:12.881Z,62.44
2023-08-09T04:41:39.939Z,62.47
2023-08-09T04:44:07.063Z,62.27
2023-08-09T04:46:34.229Z,61.97
2023-08-09T04:49:01.387Z,62.22
2023-08-09T04:51:28.600Z,62.27
2023-08-09T04:53:56.393Z,62.01
2023-08-09T04:56:23.942Z,62.15
2023-08-09T04:58:51.117Z,62.29
2023-08-09T05:01:18.291Z,61.88
2023-08-09T05:03:45.378Z,61.98
2023-08-09T05:06:12.668Z,62.07
2023-08-09T05:08:39.923Z,62.22
2023-08-09T05:11:07.080Z,61.81
2023-08-09T05:13:34.122Z,62.07
2023-08-09T05:16:01.167Z,61.85
2023-08-09T05:18:28.338Z,62.17
2023-08-09T05:20:55.469Z,62.23
2023-08-09T05:23:22.563Z,61.94
2023-08-09T05:25:49.626Z,62.50
2023-08-09T05:28:16.688Z,62.47
2023-08-09T05:30:43.787Z,62.36
2023-08-09T05:33:10.948Z,62.35
2023-08-09T05:35:38.028Z,62.61
2023-08-09T05:38:05.131Z,62.22
2023-08-09T05:40:32.162Z,62.44
2023-08-09T05:42:59.229Z,62.67
2023-08-09T05:45:26.398Z,62.55
2023-08-09T05:47:53.625Z,62.82
2023-08-09T05:50:20.732Z,62.50
2023-08-09T05:52:48.113Z,62.62
2023-08-09T05:55:15.463Z,62.33
2023-08-09T05:57:42.649Z,62.67
2023-08-09T06:00:17.077Z,62.83
2023-08-09T06:02:46.047Z,62.82
2023-08-09T06:05:24.082Z,62.94
2023-08-09T06:07:51.092Z,62.96
2023-08-09T06:10:18.268Z,62.59
2023-08-09T06:12:47.322Z,62.62
2023-08-09T06:15:14.411Z,62.87
2023-08-09T06:17:41.504Z,62.98
2023-08-09T06:20:09.309Z,62.66
2023-08-09T06:22:36.362Z,62.81
2023-08-09T06:25:03.502Z,62.95
2023-08-09T06:27:30.599Z,63.02
2023-08-09T06:29:57.768Z,63.09
2023-08-09T06:32:24.892Z,63.18
2023-08-09T06:34:52.097Z,63.25
2023-08-09T06:37:19.311Z,63.32
2023-08-09T06:39:46.414Z,63.30
2023-08-09T06:42:13.997Z,63.24
2023-08-09T06:44:43.560Z,63.19
2023-08-09T06:47:12.191Z,63.24
2023-08-09T06:49:39.288Z,63.28
2023-08-09T06:52:06.553Z,63.26
2023-08-09T06:54:33.703Z,62.98
2023-08-09T06:57:01.371Z,63.04
2023-08-09T06:59:28.858Z,62.84
2023-08-09T07:01:56.794Z,62.62
2023-08-09T07:04:23.965Z,62.88
2023-08-09T07:06:51.071Z,62.82
2023-08-09T07:09:19.597Z,62.38
2023-08-09T07:11:49.935Z,62.33
2023-08-09T07:14:17.062Z,62.13
2023-08-09T07:16:44.320Z,62.03
2023-08-09T07:19:11.555Z,61.93
2023-08-09T07:21:38.668Z,61.73
2023-08-09T07:24:05.740Z,61.89
2023-08-09T07:26:33.500Z,62.00
2023-08-09T07:29:00.814Z,61.77
2023-08-09T07:31:28.329Z,61.73
2023-08-09T07:33:55.382Z,61.26
2023-08-09T07:36:22.371Z,60.88
2023-08-09T07:38:49.547Z,61.10
2023-08-09T07:41:16.706Z,61.04
2023-08-09T07:43:43.863Z,61.01
2023-08-09T07:46:12.166Z,61.28
2023-08-09T07:48:39.344Z,61.03
2023-08-09T07:51:07.593Z,60.85
2023-08-09T07:53:34.719Z,61.00
2023-08-09T07:56:01.825Z,61.56
2023-08-09T07:58:28.995Z,61.40
2023-08-09T08:00:56.068Z,61.84
2023-08-09T08:03:23.192Z,62.10
2023-08-09T08:05:51.258Z,62.13
2023-08-09T08:08:18.994Z,61.87
2023-08-09T08:10:46.197Z,61.68
2023-08-09T08:13:13.780Z,61.97
2023-08-09T08:15:41.266Z,61.87
2023-08-09T08:18:10.294Z,61.70
2023-08-09T08:20:37.315Z,61.65
2023-08-09T08:23:07.567Z,61.40
2023-08-09T08:25:35.242Z,61.50
2023-08-09T08:28:02.554Z,61.75
2023-08-09T08:30:29.696Z,61.72
2023-08-09T08:32:56.847Z,61.30
2023-08-09T08:35:35.025Z,61.59
2023-08-09T08:38:03.132Z,61.18
2023-08-09T08:40:32.652Z,61.67
2023-08-09T08:43:03.113Z,61.57
2023-08-09T08:45:30.159Z,61.49
2023-08-09T08:47:58.606Z,61.67
2023-08-09T08:50:26.549Z,61.23
2023-08-09T08:52:54.982Z,61.57
2023-08-09T08:55:23.173Z,61.53
2023-08-09T08:57:50.334Z,61.47
2023-08-09T09:02:49.238Z,61.92
2023-08-09T09:05:19.878Z,61.72
2023-08-09T09:07:52.170Z,61.23
2023-08-09T09:10:22.303Z,61.68
2023-08-09T09:12:57.572Z,61.91
2023-08-09T09:15:26.363Z,61.56
2023-08-09T09:17:53.929Z,61.75
2023-08-09T09:20:30.862Z,62.15
2023-08-09T09:22:58.585Z,62.07
2023-08-09T09:25:25.823Z,62.19
2023-08-09T09:27:58.128Z,62.18
2023-08-09T09:30:29.572Z,62.07
2023-08-09T09:33:04.174Z,62.16
2023-08-09T09:35:33.229Z,62.24
2023-08-09T09:38:02.835Z,62.35
2023-08-09T09:40:37.265Z,62.79
2023-08-09T09:43:06.962Z,62.63
2023-08-09T09:45:35.563Z,62.46
2023-08-09T09:48:03.921Z,62.83
2023-08-09T09:50:33.329Z,62.87
2023-08-09T09:53:01.691Z,62.94
2023-08-09T09:55:30.470Z,62.84
2023-08-09T09:57:59.608Z,62.76
2023-08-09T10:00:33.321Z,62.71
2023-08-09T10:03:02.337Z,62.77
2023-08-09T10:05:37.444Z,62.40
2023-08-09T10:08:12.456Z,62.11
2023-08-09T10:10:44.041Z,61.95
2023-08-09T10:13:14.492Z,61.47
2023-08-09T10:15:45.449Z,61.43
2023-08-09T10:18:18.586Z,60.93
2023-08-09T10:20:51.864Z,60.76
2023-08-09T10:23:24.298Z,60.50
2023-08-09T10:25:53.312Z,60.67
2023-08-09T10:28:40.763Z,60.45
2023-08-09T10:31:08.393Z,59.99
2023-08-09T10:33:36.547Z,59.45
2023-08-09T10:36:04.794Z,59.43
2023-08-09T10:38:36.669Z,59.41
2023-08-09T10:41:13.742Z,59.00
2023-08-09T10:43:41.148Z,59.01
2023-08-09T10:46:37.652Z,58.63
2023-08-09T10:49:04.886Z,58.65
2023-08-09T10:51:32.136Z,58.22
2023-08-09T10:54:02.981Z,58.01
2023-08-09T10:56:35.050Z,58.13
2023-08-09T10:59:11.081Z,57.74
2023-08-09T11:01:39.162Z,57.90
2023-08-09T11:04:11.473Z,58.37
2023-08-09T11:06:44.009Z,58.68
2023-08-09T11:09:17.664Z,58.03
2023-08-09T11:11:47.407Z,58.38
2023-08-09T11:14:17.146Z,58.15
2023-08-09T11:16:45.623Z,58.32
2023-08-09T11:19:33.961Z,58.07
2023-08-09T11:22:02.284Z,58.07
2023-08-09T11:24:31.238Z,57.72
2023-08-09T11:27:00.852Z,58.06
2023-08-09T11:29:29.145Z,57.58
2023-08-09T11:31:58.869Z,57.66
2023-08-09T11:34:27.477Z,57.14
2023-08-09T11:36:57.308Z,57.69
2023-08-09T11:39:26.778Z,57.17
2023-08-09T11:41:57.982Z,56.51
2023-08-09T11:44:28.219Z,56.90
2023-08-09T11:46:56.703Z,56.63
2023-08-09T11:49:31.436Z,57.10
2023-08-09T11:52:01.762Z,56.94
2023-08-09T11:54:30.543Z,56.69
2023-08-09T11:56:58.453Z,57.06
2023-08-09T11:59:26.248Z,56.95
2023-08-09T12:01:57.041Z,56.57
2023-08-09T12:04:26.298Z,56.71
2023-08-09T12:06:57.014Z,56.97
2023-08-09T12:09:37.622Z,56.52
2023-08-09T12:12:18.231Z,55.74
2023-08-09T12:14:50.722Z,55.99
2023-08-09T12:17:23.694Z,55.48
2023-08-09T12:19:57.277Z,55.33
2023-08-09T12:22:24.610Z,54.81
2023-08-09T12:24:51.780Z,54.97
2023-08-09T12:27:21.012Z,54.92
2023-08-09T12:29:48.932Z,55.24
2023-08-09T12:32:16.857Z,55.05
2023-08-09T12:34:44.253Z,55.27
2023-08-09T12:37:12.426Z,55.49
2023-08-09T12:39:39.710Z,55.40
2023-08-09T12:42:07.135Z,56.06
2023-08-09T12:44:35.539Z,56.30
2023-08-09T12:47:02.838Z,56.14
2023-08-09T12:49:30.035Z,56.01
2023-08-09T12:51:57.191Z,55.57
2023-08-09T12:54:24.284Z,55.78
2023-08-09T12:56:53.876Z,55.92
2023-08-09T12:59:22.214Z,56.08
2023-08-09T13:01:49.714Z,56.33
2023-08-09T13:04:20.292Z,55.74
2023-08-09T13:06:47.620Z,55.75
2023-08-09T13:09:14.702Z,55.60
2023-08-09T13:11:42.021Z,55.78
2023-08-09T13:14:09.099Z,55.86
2023-08-09T13:16:36.216Z,55.80
2023-08-09T13:19:05.586Z,55.58
2023-08-09T13:21:32.735Z,55.77
2023-08-09T13:23:59.803Z,55.59
2023-08-09T13:26:27.313Z,55.18
2023-08-09T13:28:54.372Z,55.66
2023-08-09T13:31:21.567Z,56.06
2023-08-09T13:33:48.668Z,55.48
2023-08-09T13:36:15.891Z,55.42
2023-08-09T13:38:43.243Z,55.96
2023-08-09T13:41:10.873Z,56.71
2023-08-09T13:43:38.443Z,56.33
2023-08-09T13:46:07.730Z,56.60
2023-08-09T13:48:36.129Z,56.55
2023-08-09T13:51:03.708Z,56.67
2023-08-09T13:53:30.913Z,57.00
2023-08-09T13:55:58.138Z,56.67
2023-08-09T13:58:25.232Z,56.31
2023-08-09T14:00:52.445Z,56.45
2023-08-09T14:03:19.828Z,56.51
2023-08-09T14:05:46.990Z,56.64
2023-08-09T14:08:14.176Z,56.70
2023-08-09T14:10:42.881Z,56.74
2023-08-09T14:13:10.377Z,57.01
2023-08-09T14:15:38.042Z,56.97
2023-08-09T14:18:08.431Z,57.22
2023-08-09T14:20:36.707Z,56.89
2023-08-09T14:23:04.642Z,57.13
2023-08-09T14:25:32.101Z,57.51
2023-08-09T14:27:59.391Z,56.71
2023-08-09T14:30:26.464Z,56.99
2023-08-09T14:32:53.580Z,57.07
2023-08-09T14:35:22.269Z,57.57
2023-08-09T14:37:49.330Z,57.27
2023-08-09T14:40:16.849Z,57.40
2023-08-09T14:42:44.058Z,57.63
2023-08-09T14:45:12.469Z,57.07
2023-08-09T14:47:40.702Z,56.86
2023-08-09T14:50:08.713Z,57.42
2023-08-09T14:52:36.801Z,57.21
2023-08-09T14:55:04.431Z,57.30
2023-08-09T14:57:32.543Z,56.51
2023-08-09T14:59:59.768Z,56.34
2023-08-09T15:02:26.947Z,56.92
2023-08-09T15:04:54.076Z,56.30
2023-08-09T15:07:23.794Z,55.61
2023-08-09T15:09:51.108Z,55.26
2023-08-09T15:12:18.383Z,55.32
2023-08-09T15:14:45.662Z,55.16
2023-08-09T15:17:24.706Z,54.60
2023-08-09T15:19:53.682Z,54.66
2023-08-09T15:22:22.288Z,54.92
2023-08-09T15:24:49.895Z,54.66
2023-08-09T15:27:18.025Z,54.76
2023-08-09T15:29:45.128Z,54.99
2023-08-09T15:32:12.239Z,54.67
2023-08-09T15:34:39.300Z,54.85
2023-08-09T15:37:07.148Z,54.92
2023-08-09T15:39:34.868Z,54.82
2023-08-09T15:42:15.828Z,54.97
2023-08-09T15:44:45.161Z,54.94
2023-08-09T15:47:18.386Z,54.44
2023-08-09T15:49:46.232Z,54.69
2023-08-09T15:52:13.339Z,54.55
2023-08-09T15:54:40.510Z,54.71
2023-08-09T15:57:07.749Z,54.56
2023-08-09T15:59:34.798Z,55.18
2023-08-09T16:02:01.887Z,54.79
2023-08-09T16:04:29.428Z,54.53
2023-08-09T16:06:56.914Z,54.84
2023-08-09T16:09:25.327Z,54.75
2023-08-09T16:11:52.569Z,54.83
2023-08-09T16:14:19.858Z,54.64
2023-08-09T16:16:47.084Z,55.13
2023-08-09T16:19:14.481Z,55.26
2023-08-09T16:21:43.945Z,55.28
2023-08-09T16:24:11.299Z,55.00
2023-08-09T16:26:38.698Z,55.27
2023-08-09T16:29:06.192Z,54.76
2023-08-09T16:31:33.845Z,54.42
2023-08-09T16:34:01.286Z,54.71
2023-08-09T16:36:28.507Z,55.03
2023-08-09T16:38:55.699Z,54.90
2023-08-09T16:41:23.819Z,55.39
2023-08-09T16:43:50.912Z,55.08
2023-08-09T16:46:17.987Z,55.03
2023-08-09T16:48:45.418Z,54.86
2023-08-09T16:51:13.081Z,54.71
2023-08-09T16:53:40.187Z,55.00
2023-08-09T16:56:07.295Z,54.57
2023-08-09T16:58:34.838Z,54.79
2023-08-09T17:01:01.934Z,55.21
2023-08-09T17:03:30.291Z,55.44
2023-08-09T17:05:57.467Z,55.47
2023-08-09T17:08:24.841Z,55.31
2023-08-09T17:10:51.941Z,55.79
2023-08-09T17:13:20.660Z,55.09
2023-08-09T17:15:47.982Z,55.40
2023-08-09T17:18:15.203Z,55.13
2023-08-09T17:20:42.351Z,54.92
2023-08-09T17:23:09.375Z,55.29
2023-08-09T17:25:36.666Z,55.33
2023-08-09T17:28:04.062Z,55.34
2023-08-09T17:30:31.389Z,55.37
2023-08-09T17:32:58.726Z,55.55
2023-08-09T17:35:27.589Z,55.75
2023-08-09T17:37:55.269Z,55.60
2023-08-09T17:40:22.884Z,55.44
2023-08-09T17:42:51.188Z,55.76
2023-08-09T17:45:18.531Z,55.60
2023-08-09T17:47:46.588Z,56.01
2023-08-09T17:50:14.283Z,56.05
2023-08-09T17:52:42.333Z,55.60
2023-08-09T17:57:54.824Z,55.68
2023-08-09T18:00:24.163Z,55.75
2023-08-09T18:02:52.576Z,55.63
2023-08-09T18:05:20.379Z,55.47
2023-08-09T18:07:48.227Z,55.45
2023-08-09T18:10:16.675Z,55.59
2023-08-09T18:12:44.326Z,55.71
2023-08-09T18:15:11.710Z,55.80
2023-08-09T18:17:40.173Z,56.17
2023-08-09T18:20:17.019Z,55.80
2023-08-09T18:22:46.690Z,55.98
2023-08-09T18:25:13.914Z,55.96
2023-08-09T18:27:41.660Z,56.13
2023-08-09T18:30:10.687Z,55.89
2023-08-09T18:32:38.591Z,56.21
2023-08-09T18:35:17.363Z,56.27
2023-08-09T18:37:47.728Z,56.54
2023-08-09T18:40:18.762Z,56.86
2023-08-09T18:42:47.518Z,56.87
2023-08-09T18:45:16.678Z,56.73
2023-08-09T18:47:43.955Z,56.87
2023-08-09T18:50:12.311Z,57.30
2023-08-09T18:52:40.875Z,57.33
2023-08-09T18:55:09.728Z,57.25
2023-08-09T18:57:37.250Z,57.41
2023-08-09T19:00:06.606Z,57.19
2023-08-09T19:02:34.618Z,57.67
2023-08-09T19:05:02.134Z,57.68
2023-08-09T19:07:33.657Z,58.10
2023-08-09T19:10:00.747Z,57.92
2023-08-09T19:12:27.919Z,58.35
2023-08-09T19:14:55.025Z,58.61
2023-08-09T19:17:22.173Z,58.53
2023-08-09T19:19:49.295Z,58.41
2023-08-09T19:22:16.378Z,58.39
2023-08-09T19:24:43.489Z,58.09
2023-08-09T19:27:10.547Z,58.32
2023-08-09T19:29:37.769Z,57.86
2023-08-09T19:32:05.792Z,58.01
2023-08-09T19:34:36.365Z,58.08
2023-08-09T19:37:04.063Z,57.81
2023-08-09T19:39:31.412Z,58.03
2023-08-09T19:41:58.844Z,57.99
2023-08-09T19:44:26.096Z,57.89
2023-08-09T19:46:53.326Z,57.74
2023-08-09T19:49:20.528Z,57.64
2023-08-09T19:51:50.628Z,57.55
2023-08-09T19:54:17.902Z,57.15
2023-08-09T19:56:45.178Z,57.88
2023-08-09T19:59:12.371Z,57.66
2023-08-09T20:01:39.991Z,57.57
2023-08-09T20:04:07.982Z,57.71
2023-08-09T20:06:36.765Z,58.05
2023-08-09T20:09:06.248Z,57.96
2023-08-09T20:11:33.587Z,58.06
2023-08-09T20:14:00.783Z,58.03
2023-08-09T20:16:29.388Z,58.58
2023-08-09T20:18:58.502Z,58.36
2023-08-09T20:21:25.609Z,58.86
2023-08-09T20:23:52.816Z,58.59
2023-08-09T20:26:19.999Z,58.63
2023-08-09T20:28:47.119Z,58.74
2023-08-09T20:31:15.198Z,58.60
2023-08-09T20:33:42.634Z,58.49
2023-08-09T20:36:10.476Z,58.43
2023-08-09T20:38:37.675Z,58.93
2023-08-09T20:41:04.782Z,59.10
2023-08-09T20:43:31.851Z,59.05
2023-08-09T20:45:58.914Z,59.15
2023-08-09T20:48:26.043Z,59.26
2023-08-09T20:50:58.030Z,59.22
2023-08-09T20:53:26.512Z,59.12
2023-08-09T20:55:53.886Z,59.19
2023-08-09T20:58:21.143Z,59.13
2023-08-09T21:00:48.863Z,59.31
2023-08-09T21:03:16.766Z,59.27
2023-08-09T21:05:43.971Z,59.35
2023-08-09T21:08:11.018Z,59.09
2023-08-09T21:10:38.239Z,59.31
2023-08-09T21:13:05.395Z,59.67
2023-08-09T21:15:33.421Z,59.87
2023-08-09T21:18:00.476Z,59.92
2023-08-09T21:20:27.571Z,59.55
2023-08-09T21:22:57.413Z,59.79
2023-08-09T21:30:27.699Z,60.05
2023-08-09T21:32:54.890Z,60.40
2023-08-09T21:35:22.103Z,60.52
2023-08-09T21:37:49.513Z,60.33
2023-08-09T21:40:16.767Z,60.18
2023-08-09T21:42:43.860Z,60.33
2023-08-09T21:45:11.674Z,60.50
2023-08-09T21:47:38.834Z,60.13
2023-08-09T21:50:07.293Z,60.40
2023-08-09T21:52:34.531Z,60.34
2023-08-09T21:55:01.699Z,60.49
2023-08-09T21:57:31.930Z,60.67
2023-08-09T21:59:59.008Z,60.98
2023-08-09T22:02:26.331Z,60.69
2023-08-09T22:04:54.309Z,60.67
2023-08-09T22:07:21.452Z,60.79
2023-08-09T22:09:48.563Z,61.41
2023-08-09T22:12:15.677Z,61.21
2023-08-09T22:14:42.731Z,61.00
2023-08-09T22:17:09.800Z,61.12
2023-08-09T22:19:36.832Z,61.19
2023-08-09T22:22:13.766Z,61.52
2023-08-09T22:24:41.875Z,61.47
2023-08-09T22:27:08.973Z,61.64
2023-08-09T22:29:36.144Z,61.57
2023-08-09T22:32:04.024Z,61.87
2023-08-09T22:34:31.331Z,62.22
2023-08-09T22:36:58.442Z,61.86
2023-08-09T22:39:25.548Z,61.96
2023-08-09T22:41:52.616Z,61.67
2023-08-09T22:44:19.646Z,61.76
2023-08-09T22:46:46.890Z,61.90
2023-08-09T22:49:13.996Z,62.08
2023-08-09T22:51:41.304Z,61.98
2023-08-09T22:54:08.434Z,62.16
2023-08-09T22:56:35.594Z,61.95
2023-08-09T22:59:02.662Z,61.86
2023-08-09T23:01:30.333Z,62.21
2023-08-09T23:03:57.527Z,62.30
2023-08-09T23:06:25.205Z,62.34
2023-08-09T23:08:52.274Z,62.40
2023-08-09T23:11:19.533Z,62.72
2023-08-09T23:13:46.570Z,62.45
2023-08-09T23:16:13.744Z,62.56
2023-08-09T23:18:40.839Z,62.58
2023-08-09T23:21:08.126Z,63.02
2023-08-09T23:23:35.360Z,63.22
2023-08-09T23:26:02.925Z,62.67
2023-08-09T23:28:30.511Z,63.14
2023-08-09T23:31:01.157Z,63.09
2023-08-09T23:33:28.438Z,63.01
2023-08-09T23:35:55.929Z,63.25
2023-08-09T23:38:24.228Z,62.98
2023-08-09T23:40:51.467Z,63.22
2023-08-09T23:43:18.684Z,63.23
2023-08-09T23:45:45.814Z,63.08
2023-08-09T23:48:13.096Z,63.29
2023-08-09T23:50:40.273Z,63.22
2023-08-09T23:53:07.433Z,62.93
2023-08-09T23:55:34.894Z,63.20
2023-08-09T23:58:01.954Z,63.09
